Nicola — VCNN — position and weather

sailwx.info

Track history (hours):
 
Tides and Currents Weather Stations Pressure Air Temp Water Temp Dewpoint Dewpoint Depression Visibility Wind Speed Wind Dir Waves Ship Positions

Nicola

Last reported at 2018-Jan-18 00:00 UTC. Time now 2018-Jan-18 00:19 UTC.
Position N 54°20' W 130°17'.

Length 31 m.

Type: Passenger vessel. MMSI: 316012834.

Date/timePositionNaut miles runAvg speedWind from/ knotsBaromVisibWave heightAir tempDewpointWater temp
2018-Jan-18 00:00N 54°20' W 130°17'0 0.0
2018-Jan-17 23:57N 54°20' W 130°17'  
2018-Jan-12 14:59N 54°20' W 130°17'0 0.0
2018-Jan-12 14:29N 54°20' W 130°17'0 0.0
2018-Jan-12 13:59N 54°20' W 130°17'0 0.0
2018-Jan-12 13:26N 54°20' W 130°17'0 0.0
2018-Jan-12 12:53N 54°20' W 130°17'0 0.0
2018-Jan-12 12:29N 54°20' W 130°17'0 0.0
2018-Jan-12 11:59N 54°20' W 130°17'0 0.0
2018-Jan-12 11:29N 54°20' W 130°17'0 0.0
2018-Jan-12 10:59N 54°20' W 130°17'0 0.0
2018-Jan-12 10:29N 54°20' W 130°17'0 0.0
2018-Jan-12 09:59N 54°20' W 130°17'0 0.0
2018-Jan-12 09:29N 54°20' W 130°17'0 0.0
2018-Jan-12 08:59N 54°20' W 130°17'0 0.0
2018-Jan-12 08:29N 54°20' W 130°17'0 0.0
2018-Jan-12 07:59N 54°20' W 130°17'0 0.0
2018-Jan-12 07:29N 54°20' W 130°17'0 0.0
2018-Jan-12 06:59N 54°20' W 130°17'0 0.0
2018-Jan-12 06:29N 54°20' W 130°17'0 0.0
2018-Jan-12 05:56N 54°20' W 130°17'0 0.0
2018-Jan-12 05:29N 54°20' W 130°17'0 0.0
2018-Jan-12 04:59N 54°20' W 130°17'0 0.0
2018-Jan-12 04:29N 54°20' W 130°17'0 0.0
2018-Jan-12 03:59N 54°20' W 130°17'0 0.0
2018-Jan-12 03:29N 54°20' W 130°17'0 0.0
2018-Jan-12 02:59N 54°20' W 130°17'4 8.7
2018-Jan-12 02:31N 54°24' W 130°15'3 4.2
2018-Jan-12 01:50N 54°26' W 130°19'3 8.8
2018-Jan-12 01:31N 54°24' W 130°15'4 7.5
2018-Jan-12 00:58N 54°20' W 130°17'0 0.0
2018-Jan-12 00:28N 54°20' W 130°17'0 0.0
2018-Jan-11 23:58N 54°20' W 130°17'0 0.0
2018-Jan-11 23:28N 54°20' W 130°17'0 0.0
2018-Jan-11 22:58N 54°20' W 130°17'0 0.0
2018-Jan-11 22:28N 54°20' W 130°17'0 0.0
2018-Jan-11 21:52N 54°20' W 130°17'0 0.0
2018-Jan-11 21:28N 54°20' W 130°17'0 0.0
2018-Jan-11 20:58N 54°20' W 130°17'0 0.0
2018-Jan-11 20:28N 54°20' W 130°17'0 0.0
2018-Jan-11 19:58N 54°20' W 130°17'0 0.0
2018-Jan-11 19:28N 54°20' W 130°17'0 0.0
2018-Jan-11 18:58N 54°20' W 130°17'0 0.0
2018-Jan-11 18:28N 54°20' W 130°17'0 0.0
2018-Jan-11 17:58N 54°20' W 130°17'4 8.7
2018-Jan-11 17:30N 54°24' W 130°15'3 4.4
2018-Jan-11 16:50N 54°26' W 130°19'2 5.8
2018-Jan-11 16:30N 54°25' W 130°17'4 9.0
2018-Jan-11 16:00N 54°20' W 130°17'0 0.1
2018-Jan-11 15:30N 54°20' W 130°17'0 0.0
2018-Jan-11 15:00N 54°20' W 130°17'0 0.0
2018-Jan-11 14:27N 54°20' W 130°17'0 0.0
2018-Jan-11 13:57N 54°20' W 130°17'0 0.0
2018-Jan-11 13:30N 54°20' W 130°17'0 0.0
2018-Jan-11 13:00N 54°20' W 130°17'0 0.0
2018-Jan-11 12:30N 54°20' W 130°17'0 0.0
2018-Jan-11 12:00N 54°20' W 130°17'0 0.0
2018-Jan-11 11:18N 54°20' W 130°17'0 0.0
2018-Jan-11 11:00N 54°20' W 130°17'0 0.0
2018-Jan-11 10:30N 54°20' W 130°17'0 0.0
2018-Jan-11 10:00N 54°20' W 130°17'0 0.0
2018-Jan-11 09:30N 54°20' W 130°17'0 0.0
2018-Jan-11 09:00N 54°20' W 130°17'0 0.0
2018-Jan-11 08:30N 54°20' W 130°17'0 0.0
2018-Jan-11 08:00N 54°20' W 130°17'0 0.0
2018-Jan-11 07:30N 54°20' W 130°17'0 0.0
2018-Jan-11 07:00N 54°20' W 130°17'0 0.0
2018-Jan-11 06:30N 54°20' W 130°17'0 0.0
2018-Jan-11 06:00N 54°20' W 130°17'0 0.0
2018-Jan-11 05:30N 54°20' W 130°17'0 0.0
2018-Jan-11 05:00N 54°20' W 130°17'0 0.0
2018-Jan-11 04:24N 54°20' W 130°17'0 0.0
2018-Jan-11 04:00N 54°20' W 130°17'0 0.0
2018-Jan-11 03:30N 54°20' W 130°17'0 0.0
2018-Jan-11 03:00N 54°20' W 130°17'2 3.5
2018-Jan-11 02:30N 54°22' W 130°16'4 8.8
2018-Jan-11 02:00N 54°26' W 130°19'1 2.7
2018-Jan-11 01:30N 54°25' W 130°17'4 8.9
2018-Jan-11 01:00N 54°20' W 130°17'0 0.6
2018-Jan-11 00:29N 54°20' W 130°17'0 0.0
2018-Jan-10 23:59N 54°20' W 130°17'0 0.0
2018-Jan-10 23:26N 54°20' W 130°17'0 0.0
2018-Jan-10 22:59N 54°20' W 130°17'0 0.0
2018-Jan-10 22:29N 54°20' W 130°17'0 0.0
2018-Jan-10 21:59N 54°20' W 130°17'0 0.0
2018-Jan-10 21:26N 54°20' W 130°17'0 0.0
2018-Jan-10 20:59N 54°20' W 130°17'0 0.0
2018-Jan-10 20:29N 54°20' W 130°17'0 0.0
2018-Jan-10 19:59N 54°20' W 130°17'0 0.0
2018-Jan-10 19:29N 54°20' W 130°17'0 0.0
2018-Jan-10 18:59N 54°20' W 130°17'0 0.0
2018-Jan-10 18:29N 54°20' W 130°17'0 0.0
2018-Jan-10 17:59N 54°20' W 130°17'2 3.5
2018-Jan-10 17:30N 54°22' W 130°16'4 8.7
2018-Jan-10 17:00N 54°26' W 130°19'2 3.2
2018-Jan-10 16:30N 54°25' W 130°17'4 8.8
2018-Jan-10 16:00N 54°20' W 130°17'0 0.4
2018-Jan-10 15:30N 54°20' W 130°17'0 0.0
2018-Jan-10 15:00N 54°20' W 130°17'0 0.0
2018-Jan-10 14:30N 54°20' W 130°17'0 0.0
2018-Jan-10 14:00N 54°20' W 130°17'0 0.0
2018-Jan-10 13:30N 54°20' W 130°17'0 0.0
2018-Jan-10 13:00N 54°20' W 130°17'0 0.0
2018-Jan-10 12:30N 54°20' W 130°17'0 0.0
2018-Jan-10 12:00N 54°20' W 130°17'0 0.0
2018-Jan-10 11:30N 54°20' W 130°17'0 0.0
2018-Jan-10 11:00N 54°20' W 130°17'0 0.0
2018-Jan-10 10:30N 54°20' W 130°17'0 0.0
2018-Jan-10 10:00N 54°20' W 130°17'0 0.0
2018-Jan-10 09:30N 54°20' W 130°17'0 0.0
2018-Jan-10 09:00N 54°20' W 130°17'0 0.0
2018-Jan-10 08:30N 54°20' W 130°17'0 0.0
2018-Jan-10 08:00N 54°20' W 130°17'0 0.0
2018-Jan-10 07:30N 54°20' W 130°17'0 0.0
2018-Jan-10 07:00N 54°20' W 130°17'0 0.0
2018-Jan-10 06:30N 54°20' W 130°17'0 0.0
2018-Jan-10 06:00N 54°20' W 130°17'0 0.0
2018-Jan-10 05:30N 54°20' W 130°17'0 0.0
2018-Jan-10 05:00N 54°20' W 130°17'0 0.0
2018-Jan-10 04:30N 54°20' W 130°17'0 0.0
2018-Jan-10 04:00N 54°20' W 130°17'0 0.0
2018-Jan-10 03:30N 54°20' W 130°17'0 0.0
2018-Jan-10 03:00N 54°20' W 130°17'4 7.6
2018-Jan-10 02:30N 54°24' W 130°15'2 2.4
2018-Jan-10 01:35N 54°25' W 130°18'110.2
2018-Jan-10 01:30N 54°25' W 130°17'4 8.8
2018-Jan-10 01:00N 54°20' W 130°17'0 0.7
2018-Jan-10 00:30N 54°20' W 130°17'0 0.0
2018-Jan-10 00:00N 54°20' W 130°17'0 0.0
2018-Jan-09 23:30N 54°20' W 130°17'0 0.0
2018-Jan-09 23:00N 54°20' W 130°17'0 0.0
2018-Jan-09 22:30N 54°20' W 130°17'0 0.0
2018-Jan-09 22:00N 54°20' W 130°17'0 0.0
2018-Jan-09 21:30N 54°20' W 130°17'0 0.0
2018-Jan-09 21:00N 54°20' W 130°17'0 0.0
2018-Jan-09 20:30N 54°20' W 130°17'0 0.0
2018-Jan-09 20:00N 54°20' W 130°17'0 0.0
2018-Jan-09 19:30N 54°20' W 130°17'0 0.0
2018-Jan-09 19:00N 54°20' W 130°17'0 0.0
2018-Jan-09 18:30N 54°20' W 130°17'0 0.0
2018-Jan-09 18:00N 54°20' W 130°17'1 2.8
2018-Jan-09 17:30N 54°21' W 130°16'5 9.0
2018-Jan-09 16:59N 54°26' W 130°19'2 3.6
2018-Jan-09 16:30N 54°25' W 130°17'4 8.7
2018-Jan-09 16:00N 54°20' W 130°17'0 0.6
2018-Jan-09 15:30N 54°20' W 130°17'0 0.0
2018-Jan-09 15:00N 54°20' W 130°17'0 0.0
2018-Jan-09 14:30N 54°20' W 130°17'0 0.0
2018-Jan-09 14:00N 54°20' W 130°17'0 0.0
2018-Jan-09 13:30N 54°20' W 130°17'0 0.0
2018-Jan-09 13:00N 54°20' W 130°17'0 0.0
2018-Jan-09 12:30N 54°20' W 130°17'0 0.0
2018-Jan-09 12:00N 54°20' W 130°17'0 0.0
2018-Jan-09 11:30N 54°20' W 130°17'0 0.0
2018-Jan-09 11:00N 54°20' W 130°17'0 0.0
2018-Jan-09 09:57N 54°20' W 130°17'0 0.0
2018-Jan-09 09:30N 54°20' W 130°17'0 0.0
2018-Jan-09 09:00N 54°20' W 130°17'0 0.0
2018-Jan-09 08:30N 54°20' W 130°17'0 0.0
2018-Jan-09 07:58N 54°20' W 130°17'0 0.0
2018-Jan-09 07:30N 54°20' W 130°17'0 0.0
2018-Jan-09 07:00N 54°20' W 130°17'0 0.0
2018-Jan-09 06:30N 54°20' W 130°17'0 0.0
2018-Jan-09 06:01N 54°20' W 130°17'0 0.0
2018-Jan-09 05:30N 54°20' W 130°17'0 0.0
2018-Jan-09 05:00N 54°20' W 130°17'0 0.0
2018-Jan-09 04:30N 54°20' W 130°17'0 0.0
2018-Jan-09 04:00N 54°20' W 130°17'0 0.0
2018-Jan-09 03:30N 54°20' W 130°17'0 0.0
2018-Jan-09 03:00N 54°20' W 130°17'1 2.8
2018-Jan-09 02:30N 54°21' W 130°16'4 8.6
2018-Jan-09 01:59N 54°26' W 130°18'1 2.7
2018-Jan-09 01:27N 54°25' W 130°17'4 9.2
2018-Jan-09 01:00N 54°20' W 130°17'0 0.8
2018-Jan-09 00:29N 54°20' W 130°17'0 0.0
2018-Jan-08 23:56N 54°20' W 130°17'0 0.0
2018-Jan-08 23:30N 54°20' W 130°17'0 0.0
2018-Jan-08 23:01N 54°20' W 130°17'0 0.0
2018-Jan-08 22:30N 54°20' W 130°17'0 0.0
2018-Jan-08 22:00N 54°20' W 130°17'0 0.0
2018-Jan-08 21:31N 54°20' W 130°17'0 0.0
2018-Jan-08 21:00N 54°20' W 130°17'0 0.0
2018-Jan-08 20:31N 54°20' W 130°17'0 0.0
2018-Jan-08 20:00N 54°20' W 130°17'0 0.0
2018-Jan-08 19:30N 54°20' W 130°17'0 0.0
2018-Jan-08 19:01N 54°20' W 130°17'0 0.0
2018-Jan-08 18:30N 54°20' W 130°17'0 0.0
2018-Jan-08 18:00N 54°20' W 130°17'1 2.5
2018-Jan-08 17:30N 54°21' W 130°16'5 9.1
2018-Jan-08 16:58N 54°26' W 130°19'2 3.8
2018-Jan-08 16:29N 54°25' W 130°17'4 8.8
2018-Jan-08 16:01N 54°20' W 130°17'0 0.8
2018-Jan-08 15:27N 54°20' W 130°17'0 0.0
2018-Jan-08 14:57N 54°20' W 130°17'0 0.0
2018-Jan-08 14:27N 54°20' W 130°17'0 0.0
2018-Jan-08 13:57N 54°20' W 130°17'0 0.0
2018-Jan-08 13:09N 54°20' W 130°17'0 0.0
2018-Jan-08 13:00N 54°20' W 130°17'0 0.0
2018-Jan-08 12:27N 54°20' W 130°17'0 0.0
2018-Jan-08 11:57N 54°20' W 130°17'0 0.0
2018-Jan-08 11:27N 54°20' W 130°17'0 0.0
2018-Jan-08 10:51N 54°20' W 130°17'0 0.0
2018-Jan-08 10:27N 54°20' W 130°17'0 0.0
2018-Jan-08 10:00N 54°20' W 130°17'0 0.0
2018-Jan-08 09:30N 54°20' W 130°17'0 0.0
2018-Jan-08 09:00N 54°20' W 130°17'0 0.0
2018-Jan-08 08:30N 54°20' W 130°17'0 0.0
2018-Jan-08 08:00N 54°20' W 130°17'0 0.0
2018-Jan-08 07:30N 54°20' W 130°17'0 0.0
2018-Jan-08 07:00N 54°20' W 130°17'0 0.0
2018-Jan-08 06:30N 54°20' W 130°17'0 0.0
2018-Jan-08 06:00N 54°20' W 130°17'0 0.0
2018-Jan-08 05:30N 54°20' W 130°17'0 0.0
2018-Jan-08 05:00N 54°20' W 130°17'0 0.0
2018-Jan-08 04:21N 54°20' W 130°17'0 0.0
2018-Jan-08 03:57N 54°20' W 130°17'0 0.0
2018-Jan-08 03:03N 54°20' W 130°17'0 0.0
2018-Jan-08 02:57N 54°20' W 130°17'0 0.0
2018-Jan-08 02:27N 54°20' W 130°17'0 0.0
2018-Jan-08 01:57N 54°20' W 130°17'1 2.7
2018-Jan-08 01:30N 54°21' W 130°16'5 9.4
2018-Jan-08 01:00N 54°26' W 130°19'1 2.5
2018-Jan-08 00:31N 54°25' W 130°17'4 8.8
2018-Jan-08 00:01N 54°20' W 130°17'0 0.7
2018-Jan-07 23:27N 54°20' W 130°17'0 0.0
2018-Jan-07 22:57N 54°20' W 130°17'0 0.0
2018-Jan-07 22:27N 54°20' W 130°17'0 0.0
2018-Jan-07 21:57N 54°20' W 130°17'0 0.0
2018-Jan-07 21:27N 54°20' W 130°17'0 0.0
2018-Jan-07 20:57N 54°20' W 130°17'1 3.3
2018-Jan-07 20:30N 54°21' W 130°16'5 9.1
2018-Jan-07 19:59N 54°26' W 130°19'2 3.6
2018-Jan-07 19:31N 54°25' W 130°17'4 8.7
2018-Jan-07 19:00N 54°20' W 130°17'0 0.5
2018-Jan-07 18:28N 54°20' W 130°17'0 0.0
2018-Jan-07 17:58N 54°20' W 130°17'0 0.0
2018-Jan-07 17:28N 54°20' W 130°17'0 0.0
2018-Jan-07 16:58N 54°20' W 130°17'0 0.0
2018-Jan-07 16:28N 54°20' W 130°17'0 0.0
2018-Jan-07 15:58N 54°20' W 130°17'0 0.0
2018-Jan-07 15:28N 54°20' W 130°17'0 0.0
2018-Jan-07 14:58N 54°20' W 130°17'0 0.0
2018-Jan-07 14:28N 54°20' W 130°17'0 0.0
2018-Jan-07 13:58N 54°20' W 130°17'0 0.0
2018-Jan-07 13:28N 54°20' W 130°17'0 0.0
2018-Jan-07 12:55N 54°20' W 130°17'0 0.0
2018-Jan-07 12:22N 54°20' W 130°17'0 0.0
2018-Jan-07 11:58N 54°20' W 130°17'0 0.0
2018-Jan-07 11:28N 54°20' W 130°17'0 0.0
2018-Jan-07 10:58N 54°20' W 130°17'0 0.0
2018-Jan-07 10:25N 54°20' W 130°17'0 0.0
2018-Jan-07 09:58N 54°20' W 130°17'0 0.0
2018-Jan-07 09:25N 54°20' W 130°17'0 0.0
2018-Jan-07 08:55N 54°20' W 130°17'0 0.0
2018-Jan-07 08:28N 54°20' W 130°17'0 0.0
2018-Jan-07 07:58N 54°20' W 130°17'0 0.0
2018-Jan-07 07:25N 54°20' W 130°17'0 0.0
2018-Jan-07 06:58N 54°20' W 130°17'0 0.0
2018-Jan-07 06:25N 54°20' W 130°17'0 0.0
2018-Jan-07 05:55N 54°20' W 130°17'0 0.0
2018-Jan-07 05:25N 54°20' W 130°17'0 0.0
2018-Jan-07 04:58N 54°20' W 130°17'0 0.0
2018-Jan-07 04:28N 54°20' W 130°17'0 0.0
2018-Jan-07 03:58N 54°20' W 130°17'0 0.0
2018-Jan-07 03:28N 54°20' W 130°17'0 0.0
2018-Jan-07 02:58N 54°20' W 130°17'1 2.1
2018-Jan-07 02:30N 54°21' W 130°17'4 4.6
2018-Jan-07 01:34N 54°25' W 130°18'110.2
2018-Jan-07 01:29N 54°25' W 130°17'5 4.8
2018-Jan-07 00:30N 54°20' W 130°17'0 0.0
2018-Jan-07 00:00N 54°20' W 130°17'0 0.0
2018-Jan-06 23:30N 54°20' W 130°17'0 0.0
2018-Jan-06 23:00N 54°20' W 130°17'0 0.0
2018-Jan-06 22:30N 54°20' W 130°17'0 0.0
2018-Jan-06 22:00N 54°20' W 130°17'0 0.0
2018-Jan-06 21:30N 54°20' W 130°17'0 0.0
2018-Jan-06 21:00N 54°20' W 130°17'0 0.0
2018-Jan-06 20:30N 54°20' W 130°17'0 0.0
2018-Jan-06 20:00N 54°20' W 130°17'0 0.0
2018-Jan-06 19:30N 54°20' W 130°17'0 0.0
2018-Jan-06 18:54N 54°20' W 130°17'0 0.0
2018-Jan-06 18:30N 54°20' W 130°17'0 0.0
2018-Jan-06 18:00N 54°20' W 130°17'1 2.1
2018-Jan-06 17:30N 54°21' W 130°17'4 3.5
2018-Jan-06 16:29N 54°25' W 130°17'4 8.5
2018-Jan-06 16:01N 54°21' W 130°17'1 1.3
2018-Jan-06 15:26N 54°20' W 130°17'0 0.0
2018-Jan-06 14:59N 54°20' W 130°17'0 0.0
2018-Jan-06 14:29N 54°20' W 130°17'0 0.0
2018-Jan-06 13:59N 54°20' W 130°17'0 0.0
2018-Jan-06 13:26N 54°20' W 130°17'0 0.0
2018-Jan-06 12:56N 54°20' W 130°17'0 0.0
2018-Jan-06 12:29N 54°20' W 130°17'0 0.0
2018-Jan-06 11:59N 54°20' W 130°17'0 0.0
2018-Jan-06 11:29N 54°20' W 130°17'0 0.0
2018-Jan-06 10:59N 54°20' W 130°17'0 0.0
2018-Jan-06 10:26N 54°20' W 130°17'0 0.0
2018-Jan-06 09:59N 54°20' W 130°17'0 0.0
2018-Jan-06 09:29N 54°20' W 130°17'0 0.0
2018-Jan-06 08:56N 54°20' W 130°17'0 0.0
2018-Jan-06 08:26N 54°20' W 130°17'0 0.0
2018-Jan-06 07:59N 54°20' W 130°17'0 0.0
2018-Jan-06 07:26N 54°20' W 130°17'0 0.0
2018-Jan-06 06:56N 54°20' W 130°17'0 0.0
2018-Jan-06 06:29N 54°20' W 130°17'0 0.0
2018-Jan-06 05:59N 54°20' W 130°17'0 0.0
2018-Jan-06 05:29N 54°20' W 130°17'0 0.0
2018-Jan-06 04:56N 54°20' W 130°17'0 0.0
2018-Jan-06 04:29N 54°20' W 130°17'0 0.0
2018-Jan-06 03:59N 54°20' W 130°17'0 0.0
2018-Jan-06 03:29N 54°20' W 130°17'0 0.0
2018-Jan-06 02:59N 54°20' W 130°17'2 4.7
2018-Jan-06 02:30N 54°22' W 130°16'4 4.3
2018-Jan-06 01:37N 54°26' W 130°18'110.4
2018-Jan-06 01:30N 54°25' W 130°17'4 8.8
2018-Jan-06 01:01N 54°20' W 130°17'0 0.7
2018-Jan-06 00:29N 54°20' W 130°17'0 0.0
2018-Jan-05 23:59N 54°20' W 130°17'0 0.0
2018-Jan-05 23:29N 54°20' W 130°17'0 0.0
2018-Jan-05 22:56N 54°20' W 130°17'0 0.0
2018-Jan-05 22:29N 54°20' W 130°17'0 0.0
2018-Jan-05 21:59N 54°20' W 130°17'0 0.0
2018-Jan-05 21:23N 54°20' W 130°17'0 0.0
2018-Jan-05 20:59N 54°20' W 130°17'0 0.0
2018-Jan-05 20:29N 54°20' W 130°17'0 0.0
2018-Jan-05 19:59N 54°20' W 130°17'0 0.0
2018-Jan-05 19:29N 54°20' W 130°17'0 0.0
2018-Jan-05 18:59N 54°20' W 130°17'0 0.0
2018-Jan-05 18:29N 54°20' W 130°17'0 0.0
2018-Jan-05 18:00N 54°20' W 130°17'2 3.3
2018-Jan-05 17:30N 54°22' W 130°16'3 3.1
2018-Jan-05 16:31N 54°25' W 130°17'010.1
2018-Jan-05 16:29N 54°24' W 130°17'4 8.9
2018-Jan-05 16:00N 54°20' W 130°17'0 0.3
2018-Jan-05 15:21N 54°20' W 130°17'0 0.0
2018-Jan-05 14:57N 54°20' W 130°17'0 0.0
2018-Jan-05 14:30N 54°20' W 130°17'0 0.0
2018-Jan-05 13:57N 54°20' W 130°17'0 0.0
2018-Jan-05 13:30N 54°20' W 130°17'0 0.0
2018-Jan-05 12:57N 54°20' W 130°17'0 0.0
2018-Jan-05 12:30N 54°20' W 130°17'0 0.0
2018-Jan-05 11:57N 54°20' W 130°17'0 0.0
2018-Jan-05 11:27N 54°20' W 130°17'0 0.0
2018-Jan-05 10:57N 54°20' W 130°17'0 0.0
2018-Jan-05 10:27N 54°20' W 130°17'0 0.0
2018-Jan-05 09:57N 54°20' W 130°17'0 0.0
2018-Jan-05 09:30N 54°20' W 130°17'0 0.0
2018-Jan-05 09:00N 54°20' W 130°17'0 0.0
2018-Jan-05 08:27N 54°20' W 130°17'0 0.0
2018-Jan-05 08:00N 54°20' W 130°17'0 0.0
2018-Jan-05 07:27N 54°20' W 130°17'0 0.0
2018-Jan-05 07:00N 54°20' W 130°17'0 0.0
2018-Jan-05 06:30N 54°20' W 130°17'0 0.0
2018-Jan-05 06:00N 54°20' W 130°17'0 0.0
2018-Jan-05 05:30N 54°20' W 130°17'0 0.0
2018-Jan-05 05:00N 54°20' W 130°17'0 0.0
2018-Jan-05 04:27N 54°20' W 130°17'0 0.0
2018-Jan-05 04:00N 54°20' W 130°17'0 0.0
2018-Jan-05 03:30N 54°20' W 130°17'0 0.0
2018-Jan-05 02:57N 54°20' W 130°17'1 2.7
2018-Jan-05 02:30N 54°21' W 130°16'5 8.8
2018-Jan-05 01:58N 54°26' W 130°19'1 2.6
2018-Jan-05 01:30N 54°25' W 130°17'4 8.5
2018-Jan-05 01:00N 54°21' W 130°17'1 1.0
2018-Jan-05 00:30N 54°20' W 130°17'0 0.0
2018-Jan-05 00:00N 54°20' W 130°17'0 0.0
2018-Jan-04 23:30N 54°20' W 130°17'0 0.0
2018-Jan-04 23:00N 54°20' W 130°17'0 0.0
2018-Jan-04 22:30N 54°20' W 130°17'0 0.0
2018-Jan-04 21:57N 54°20' W 130°17'0 0.0
2018-Jan-04 21:30N 54°20' W 130°17'0 0.0
2018-Jan-04 20:54N 54°20' W 130°17'0 0.0
2018-Jan-04 20:27N 54°20' W 130°17'0 0.0
2018-Jan-04 20:00N 54°20' W 130°17'0 0.0
2018-Jan-04 19:30N 54°20' W 130°17'0 0.0
2018-Jan-04 18:54N 54°20' W 130°17'0 0.0
2018-Jan-04 18:30N 54°20' W 130°17'0 0.0
2018-Jan-04 17:57N 54°20' W 130°17'2 3.8
2018-Jan-04 17:30N 54°22' W 130°16'4 8.7
2018-Jan-04 17:00N 54°26' W 130°19'2 3.4
2018-Jan-04 16:30N 54°25' W 130°17'4 8.6
2018-Jan-04 16:00N 54°20' W 130°17'0 0.4
2018-Jan-04 15:25N 54°20' W 130°17'0 0.0
2018-Jan-04 14:58N 54°20' W 130°17'0 0.0
2018-Jan-04 14:19N 54°20' W 130°17'0 0.0
2018-Jan-04 13:58N 54°20' W 130°17'0 0.0
2018-Jan-04 13:28N 54°20' W 130°17'0 0.0
2018-Jan-04 12:55N 54°20' W 130°17'0 0.0
2018-Jan-04 12:28N 54°20' W 130°17'0 0.0
2018-Jan-04 11:58N 54°20' W 130°17'0 0.0
2018-Jan-04 11:25N 54°20' W 130°17'0 0.0
2018-Jan-04 10:58N 54°20' W 130°17'0 0.0
2018-Jan-04 10:28N 54°20' W 130°17'0 0.0
2018-Jan-04 09:58N 54°20' W 130°17'0 0.0
2018-Jan-04 09:28N 54°20' W 130°17'0 0.0
2018-Jan-04 08:58N 54°20' W 130°17'0 0.0
2018-Jan-04 08:28N 54°20' W 130°17'0 0.0
2018-Jan-04 07:58N 54°20' W 130°17'0 0.0
2018-Jan-04 07:28N 54°20' W 130°17'0 0.0
2018-Jan-04 06:58N 54°20' W 130°17'0 0.0
2018-Jan-04 06:28N 54°20' W 130°17'0 0.0
2018-Jan-04 05:58N 54°20' W 130°17'0 0.0
2018-Jan-04 05:28N 54°20' W 130°17'0 0.0
2018-Jan-04 04:58N 54°20' W 130°17'0 0.0
2018-Jan-04 04:28N 54°20' W 130°17'0 0.0
2018-Jan-04 03:55N 54°20' W 130°17'0 0.0
2018-Jan-04 03:28N 54°20' W 130°17'0 0.0
2018-Jan-04 02:58N 54°20' W 130°17'2 4.0
2018-Jan-04 02:30N 54°22' W 130°16'4 8.9
2018-Jan-04 02:00N 54°26' W 130°19'2 3.4
2018-Jan-04 01:30N 54°25' W 130°17'4 8.4
2018-Jan-04 01:01N 54°20' W 130°17'0 0.9
2018-Jan-04 00:30N 54°20' W 130°17'0 0.0
2018-Jan-04 00:00N 54°20' W 130°17'0 0.0
2018-Jan-03 23:30N 54°20' W 130°17'0 0.0
2018-Jan-03 23:00N 54°20' W 130°17'0 0.0
2018-Jan-03 22:30N 54°20' W 130°17'0 0.0
2018-Jan-03 22:00N 54°20' W 130°17'0 0.0
2018-Jan-03 21:30N 54°20' W 130°17'0 0.0
2018-Jan-03 21:00N 54°20' W 130°17'0 0.0
2018-Jan-03 20:30N 54°20' W 130°17'0 0.0
2018-Jan-03 20:00N 54°20' W 130°17'0 0.0
2018-Jan-03 19:30N 54°20' W 130°17'0 0.0
2018-Jan-03 19:00N 54°20' W 130°17'0 0.0
2018-Jan-03 18:30N 54°20' W 130°17'0 0.0
2018-Jan-03 18:00N 54°20' W 130°17'2 3.3
2018-Jan-03 17:30N 54°22' W 130°16'4 8.6
2018-Jan-03 17:01N 54°26' W 130°18'1 2.7
2018-Jan-03 16:30N 54°25' W 130°17'4 8.9
2018-Jan-03 16:00N 54°20' W 130°17'0 0.4
2018-Jan-03 15:29N 54°20' W 130°17'0 0.0
2018-Jan-03 14:59N 54°20' W 130°17'0 0.0
2018-Jan-03 14:29N 54°20' W 130°17'0 0.0
2018-Jan-03 13:59N 54°20' W 130°17'0 0.0
2018-Jan-03 13:26N 54°20' W 130°17'0 0.0
2018-Jan-03 12:59N 54°20' W 130°17'0 0.0
2018-Jan-03 12:29N 54°20' W 130°17'0 0.0
2018-Jan-03 11:53N 54°20' W 130°17'0 0.0
2018-Jan-03 11:29N 54°20' W 130°17'0 0.0
2018-Jan-03 10:59N 54°20' W 130°17'0 0.0
2018-Jan-03 10:29N 54°20' W 130°17'0 0.0
2018-Jan-03 09:59N 54°20' W 130°17'0 0.0
2018-Jan-03 09:29N 54°20' W 130°17'0 0.0
2018-Jan-03 08:59N 54°20' W 130°17'0 0.0
2018-Jan-03 08:29N 54°20' W 130°17'0 0.0
2018-Jan-03 07:59N 54°20' W 130°17'0 0.0
2018-Jan-03 07:29N 54°20' W 130°17'0 0.0
2018-Jan-03 06:59N 54°20' W 130°17'0 0.0
2018-Jan-03 06:29N 54°20' W 130°17'0 0.0
2018-Jan-03 05:59N 54°20' W 130°17'0 0.0
2018-Jan-03 05:29N 54°20' W 130°17'0 0.0
2018-Jan-03 04:59N 54°20' W 130°17'0 0.0
2018-Jan-03 04:29N 54°20' W 130°17'0 0.0
2018-Jan-03 03:59N 54°20' W 130°17'0 0.0
2018-Jan-03 03:29N 54°20' W 130°17'0 0.0
2018-Jan-03 02:57N 54°20' W 130°17'3 6.9
2018-Jan-03 02:30N 54°23' W 130°16'4 6.2
2018-Jan-03 01:54N 54°26' W 130°19'2 4.1
2018-Jan-03 01:30N 54°25' W 130°17'4 8.5
2018-Jan-03 01:00N 54°20' W 130°17'0 0.9
2018-Jan-03 00:29N 54°20' W 130°17'0 0.0
2018-Jan-02 23:58N 54°20' W 130°17'0 0.0
2018-Jan-02 23:28N 54°20' W 130°17'0 0.0
2018-Jan-02 22:58N 54°20' W 130°17'0 0.0
2018-Jan-02 22:28N 54°20' W 130°17'0 0.0
2018-Jan-02 21:58N 54°20' W 130°17'0 0.0
2018-Jan-02 21:25N 54°20' W 130°17'0 0.0
2018-Jan-02 20:53N 54°20' W 130°17'0 0.0
2018-Jan-02 20:28N 54°20' W 130°17'0 0.0
2018-Jan-02 19:58N 54°20' W 130°17'0 0.0
2018-Jan-02 19:28N 54°20' W 130°17'0 0.0
2018-Jan-02 18:52N 54°20' W 130°17'0 0.0
2018-Jan-02 18:28N 54°20' W 130°17'0 0.0
2018-Jan-02 17:58N 54°20' W 130°17'3 6.0
2018-Jan-02 17:30N 54°23' W 130°16'4 7.5
2018-Jan-02 17:00N 54°26' W 130°19'3 6.1
2018-Jan-02 16:30N 54°24' W 130°15'4 6.6
2018-Jan-02 15:55N 54°20' W 130°17'0 0.0
2018-Jan-02 15:28N 54°20' W 130°17'  
Track history (hours):
 
Tides and Currents Weather Stations Pressure Air Temp Water Temp Dewpoint Dewpoint Depression Visibility Wind Speed Wind Dir Waves Ship Positions

Nicola

Last reported at 2018-Jan-18 00:00 UTC. Time now 2018-Jan-18 00:19 UTC.
Position N 54°20' W 130°17'.

Length 31 m.

Type: Passenger vessel. MMSI: 316012834.

Date/timePositionNaut miles runAvg speedWind from/ knotsBaromVisibWave heightAir tempDewpointWater temp
2018-Jan-18 00:00N 54°20' W 130°17'0 0.0
2018-Jan-17 23:57N 54°20' W 130°17'  
2018-Jan-12 14:59N 54°20' W 130°17'0 0.0
2018-Jan-12 14:29N 54°20' W 130°17'0 0.0
2018-Jan-12 13:59N 54°20' W 130°17'0 0.0
2018-Jan-12 13:26N 54°20' W 130°17'0 0.0
2018-Jan-12 12:53N 54°20' W 130°17'0 0.0
2018-Jan-12 12:29N 54°20' W 130°17'0 0.0
2018-Jan-12 11:59N 54°20' W 130°17'0 0.0
2018-Jan-12 11:29N 54°20' W 130°17'0 0.0
2018-Jan-12 10:59N 54°20' W 130°17'0 0.0
2018-Jan-12 10:29N 54°20' W 130°17'0 0.0
2018-Jan-12 09:59N 54°20' W 130°17'0 0.0
2018-Jan-12 09:29N 54°20' W 130°17'0 0.0
2018-Jan-12 08:59N 54°20' W 130°17'0 0.0
2018-Jan-12 08:29N 54°20' W 130°17'0 0.0
2018-Jan-12 07:59N 54°20' W 130°17'0 0.0
2018-Jan-12 07:29N 54°20' W 130°17'0 0.0
2018-Jan-12 06:59N 54°20' W 130°17'0 0.0
2018-Jan-12 06:29N 54°20' W 130°17'0 0.0
2018-Jan-12 05:56N 54°20' W 130°17'0 0.0
2018-Jan-12 05:29N 54°20' W 130°17'0 0.0
2018-Jan-12 04:59N 54°20' W 130°17'0 0.0
2018-Jan-12 04:29N 54°20' W 130°17'0 0.0
2018-Jan-12 03:59N 54°20' W 130°17'0 0.0
2018-Jan-12 03:29N 54°20' W 130°17'0 0.0
2018-Jan-12 02:59N 54°20' W 130°17'4 8.7
2018-Jan-12 02:31N 54°24' W 130°15'3 4.2
2018-Jan-12 01:50N 54°26' W 130°19'3 8.8
2018-Jan-12 01:31N 54°24' W 130°15'4 7.5
2018-Jan-12 00:58N 54°20' W 130°17'0 0.0
2018-Jan-12 00:28N 54°20' W 130°17'0 0.0
2018-Jan-11 23:58N 54°20' W 130°17'0 0.0
2018-Jan-11 23:28N 54°20' W 130°17'0 0.0
2018-Jan-11 22:58N 54°20' W 130°17'0 0.0
2018-Jan-11 22:28N 54°20' W 130°17'0 0.0
2018-Jan-11 21:52N 54°20' W 130°17'0 0.0
2018-Jan-11 21:28N 54°20' W 130°17'0 0.0
2018-Jan-11 20:58N 54°20' W 130°17'0 0.0
2018-Jan-11 20:28N 54°20' W 130°17'0 0.0
2018-Jan-11 19:58N 54°20' W 130°17'0 0.0
2018-Jan-11 19:28N 54°20' W 130°17'0 0.0
2018-Jan-11 18:58N 54°20' W 130°17'0 0.0
2018-Jan-11 18:28N 54°20' W 130°17'0 0.0
2018-Jan-11 17:58N 54°20' W 130°17'4 8.7
2018-Jan-11 17:30N 54°24' W 130°15'3 4.4
2018-Jan-11 16:50N 54°26' W 130°19'2 5.8
2018-Jan-11 16:30N 54°25' W 130°17'4 9.0
2018-Jan-11 16:00N 54°20' W 130°17'0 0.1
2018-Jan-11 15:30N 54°20' W 130°17'0 0.0
2018-Jan-11 15:00N 54°20' W 130°17'0 0.0
2018-Jan-11 14:27N 54°20' W 130°17'0 0.0
2018-Jan-11 13:57N 54°20' W 130°17'0 0.0
2018-Jan-11 13:30N 54°20' W 130°17'0 0.0
2018-Jan-11 13:00N 54°20' W 130°17'0 0.0
2018-Jan-11 12:30N 54°20' W 130°17'0 0.0
2018-Jan-11 12:00N 54°20' W 130°17'0 0.0
2018-Jan-11 11:18N 54°20' W 130°17'0 0.0
2018-Jan-11 11:00N 54°20' W 130°17'0 0.0
2018-Jan-11 10:30N 54°20' W 130°17'0 0.0
2018-Jan-11 10:00N 54°20' W 130°17'0 0.0
2018-Jan-11 09:30N 54°20' W 130°17'0 0.0
2018-Jan-11 09:00N 54°20' W 130°17'0 0.0
2018-Jan-11 08:30N 54°20' W 130°17'0 0.0
2018-Jan-11 08:00N 54°20' W 130°17'0 0.0
2018-Jan-11 07:30N 54°20' W 130°17'0 0.0
2018-Jan-11 07:00N 54°20' W 130°17'0 0.0
2018-Jan-11 06:30N 54°20' W 130°17'0 0.0
2018-Jan-11 06:00N 54°20' W 130°17'0 0.0
2018-Jan-11 05:30N 54°20' W 130°17'0 0.0
2018-Jan-11 05:00N 54°20' W 130°17'0 0.0
2018-Jan-11 04:24N 54°20' W 130°17'0 0.0
2018-Jan-11 04:00N 54°20' W 130°17'0 0.0
2018-Jan-11 03:30N 54°20' W 130°17'0 0.0
2018-Jan-11 03:00N 54°20' W 130°17'2 3.5
2018-Jan-11 02:30N 54°22' W 130°16'4 8.8
2018-Jan-11 02:00N 54°26' W 130°19'1 2.7
2018-Jan-11 01:30N 54°25' W 130°17'4 8.9
2018-Jan-11 01:00N 54°20' W 130°17'0 0.6
2018-Jan-11 00:29N 54°20' W 130°17'0 0.0
2018-Jan-10 23:59N 54°20' W 130°17'0 0.0
2018-Jan-10 23:26N 54°20' W 130°17'0 0.0
2018-Jan-10 22:59N 54°20' W 130°17'0 0.0
2018-Jan-10 22:29N 54°20' W 130°17'0 0.0
2018-Jan-10 21:59N 54°20' W 130°17'0 0.0
2018-Jan-10 21:26N 54°20' W 130°17'0 0.0
2018-Jan-10 20:59N 54°20' W 130°17'0 0.0
2018-Jan-10 20:29N 54°20' W 130°17'0 0.0
2018-Jan-10 19:59N 54°20' W 130°17'0 0.0
2018-Jan-10 19:29N 54°20' W 130°17'0 0.0
2018-Jan-10 18:59N 54°20' W 130°17'0 0.0
2018-Jan-10 18:29N 54°20' W 130°17'0 0.0
2018-Jan-10 17:59N 54°20' W 130°17'2 3.5
2018-Jan-10 17:30N 54°22' W 130°16'4 8.7
2018-Jan-10 17:00N 54°26' W 130°19'2 3.2
2018-Jan-10 16:30N 54°25' W 130°17'4 8.8
2018-Jan-10 16:00N 54°20' W 130°17'0 0.4
2018-Jan-10 15:30N 54°20' W 130°17'0 0.0
2018-Jan-10 15:00N 54°20' W 130°17'0 0.0
2018-Jan-10 14:30N 54°20' W 130°17'0 0.0
2018-Jan-10 14:00N 54°20' W 130°17'0 0.0
2018-Jan-10 13:30N 54°20' W 130°17'0 0.0
2018-Jan-10 13:00N 54°20' W 130°17'0 0.0
2018-Jan-10 12:30N 54°20' W 130°17'0 0.0
2018-Jan-10 12:00N 54°20' W 130°17'0 0.0
2018-Jan-10 11:30N 54°20' W 130°17'0 0.0
2018-Jan-10 11:00N 54°20' W 130°17'0 0.0
2018-Jan-10 10:30N 54°20' W 130°17'0 0.0
2018-Jan-10 10:00N 54°20' W 130°17'0 0.0
2018-Jan-10 09:30N 54°20' W 130°17'0 0.0
2018-Jan-10 09:00N 54°20' W 130°17'0 0.0
2018-Jan-10 08:30N 54°20' W 130°17'0 0.0
2018-Jan-10 08:00N 54°20' W 130°17'0 0.0
2018-Jan-10 07:30N 54°20' W 130°17'0 0.0
2018-Jan-10 07:00N 54°20' W 130°17'0 0.0
2018-Jan-10 06:30N 54°20' W 130°17'0 0.0
2018-Jan-10 06:00N 54°20' W 130°17'0 0.0
2018-Jan-10 05:30N 54°20' W 130°17'0 0.0
2018-Jan-10 05:00N 54°20' W 130°17'0 0.0
2018-Jan-10 04:30N 54°20' W 130°17'0 0.0
2018-Jan-10 04:00N 54°20' W 130°17'0 0.0
2018-Jan-10 03:30N 54°20' W 130°17'0 0.0
2018-Jan-10 03:00N 54°20' W 130°17'4 7.6
2018-Jan-10 02:30N 54°24' W 130°15'2 2.4
2018-Jan-10 01:35N 54°25' W 130°18'110.2
2018-Jan-10 01:30N 54°25' W 130°17'4 8.8
2018-Jan-10 01:00N 54°20' W 130°17'0 0.7
2018-Jan-10 00:30N 54°20' W 130°17'0 0.0
2018-Jan-10 00:00N 54°20' W 130°17'0 0.0
2018-Jan-09 23:30N 54°20' W 130°17'0 0.0
2018-Jan-09 23:00N 54°20' W 130°17'0 0.0
2018-Jan-09 22:30N 54°20' W 130°17'0 0.0
2018-Jan-09 22:00N 54°20' W 130°17'0 0.0
2018-Jan-09 21:30N 54°20' W 130°17'0 0.0
2018-Jan-09 21:00N 54°20' W 130°17'0 0.0
2018-Jan-09 20:30N 54°20' W 130°17'0 0.0
2018-Jan-09 20:00N 54°20' W 130°17'0 0.0
2018-Jan-09 19:30N 54°20' W 130°17'0 0.0
2018-Jan-09 19:00N 54°20' W 130°17'0 0.0
2018-Jan-09 18:30N 54°20' W 130°17'0 0.0
2018-Jan-09 18:00N 54°20' W 130°17'1 2.8
2018-Jan-09 17:30N 54°21' W 130°16'5 9.0
2018-Jan-09 16:59N 54°26' W 130°19'2 3.6
2018-Jan-09 16:30N 54°25' W 130°17'4 8.7
2018-Jan-09 16:00N 54°20' W 130°17'0 0.6
2018-Jan-09 15:30N 54°20' W 130°17'0 0.0
2018-Jan-09 15:00N 54°20' W 130°17'0 0.0
2018-Jan-09 14:30N 54°20' W 130°17'0 0.0
2018-Jan-09 14:00N 54°20' W 130°17'0 0.0
2018-Jan-09 13:30N 54°20' W 130°17'0 0.0
2018-Jan-09 13:00N 54°20' W 130°17'0 0.0
2018-Jan-09 12:30N 54°20' W 130°17'0 0.0
2018-Jan-09 12:00N 54°20' W 130°17'0 0.0
2018-Jan-09 11:30N 54°20' W 130°17'0 0.0
2018-Jan-09 11:00N 54°20' W 130°17'0 0.0
2018-Jan-09 09:57N 54°20' W 130°17'0 0.0
2018-Jan-09 09:30N 54°20' W 130°17'0 0.0
2018-Jan-09 09:00N 54°20' W 130°17'0 0.0
2018-Jan-09 08:30N 54°20' W 130°17'0 0.0
2018-Jan-09 07:58N 54°20' W 130°17'0 0.0
2018-Jan-09 07:30N 54°20' W 130°17'0 0.0
2018-Jan-09 07:00N 54°20' W 130°17'0 0.0
2018-Jan-09 06:30N 54°20' W 130°17'0 0.0
2018-Jan-09 06:01N 54°20' W 130°17'0 0.0
2018-Jan-09 05:30N 54°20' W 130°17'0 0.0
2018-Jan-09 05:00N 54°20' W 130°17'0 0.0
2018-Jan-09 04:30N 54°20' W 130°17'0 0.0
2018-Jan-09 04:00N 54°20' W 130°17'0 0.0
2018-Jan-09 03:30N 54°20' W 130°17'0 0.0
2018-Jan-09 03:00N 54°20' W 130°17'1 2.8
2018-Jan-09 02:30N 54°21' W 130°16'4 8.6
2018-Jan-09 01:59N 54°26' W 130°18'1 2.7
2018-Jan-09 01:27N 54°25' W 130°17'4 9.2
2018-Jan-09 01:00N 54°20' W 130°17'0 0.8
2018-Jan-09 00:29N 54°20' W 130°17'0 0.0
2018-Jan-08 23:56N 54°20' W 130°17'0 0.0
2018-Jan-08 23:30N 54°20' W 130°17'0 0.0
2018-Jan-08 23:01N 54°20' W 130°17'0 0.0
2018-Jan-08 22:30N 54°20' W 130°17'0 0.0
2018-Jan-08 22:00N 54°20' W 130°17'0 0.0
2018-Jan-08 21:31N 54°20' W 130°17'0 0.0
2018-Jan-08 21:00N 54°20' W 130°17'0 0.0
2018-Jan-08 20:31N 54°20' W 130°17'0 0.0
2018-Jan-08 20:00N 54°20' W 130°17'0 0.0
2018-Jan-08 19:30N 54°20' W 130°17'0 0.0
2018-Jan-08 19:01N 54°20' W 130°17'0 0.0
2018-Jan-08 18:30N 54°20' W 130°17'0 0.0
2018-Jan-08 18:00N 54°20' W 130°17'1 2.5
2018-Jan-08 17:30N 54°21' W 130°16'5 9.1
2018-Jan-08 16:58N 54°26' W 130°19'2 3.8
2018-Jan-08 16:29N 54°25' W 130°17'4 8.8
2018-Jan-08 16:01N 54°20' W 130°17'0 0.8
2018-Jan-08 15:27N 54°20' W 130°17'0 0.0
2018-Jan-08 14:57N 54°20' W 130°17'0 0.0
2018-Jan-08 14:27N 54°20' W 130°17'0 0.0
2018-Jan-08 13:57N 54°20' W 130°17'0 0.0
2018-Jan-08 13:09N 54°20' W 130°17'0 0.0
2018-Jan-08 13:00N 54°20' W 130°17'0 0.0
2018-Jan-08 12:27N 54°20' W 130°17'0 0.0
2018-Jan-08 11:57N 54°20' W 130°17'0 0.0
2018-Jan-08 11:27N 54°20' W 130°17'0 0.0
2018-Jan-08 10:51N 54°20' W 130°17'0 0.0
2018-Jan-08 10:27N 54°20' W 130°17'0 0.0
2018-Jan-08 10:00N 54°20' W 130°17'0 0.0
2018-Jan-08 09:30N 54°20' W 130°17'0 0.0
2018-Jan-08 09:00N 54°20' W 130°17'0 0.0
2018-Jan-08 08:30N 54°20' W 130°17'0 0.0
2018-Jan-08 08:00N 54°20' W 130°17'0 0.0
2018-Jan-08 07:30N 54°20' W 130°17'0 0.0
2018-Jan-08 07:00N 54°20' W 130°17'0 0.0
2018-Jan-08 06:30N 54°20' W 130°17'0 0.0
2018-Jan-08 06:00N 54°20' W 130°17'0 0.0
2018-Jan-08 05:30N 54°20' W 130°17'0 0.0
2018-Jan-08 05:00N 54°20' W 130°17'0 0.0
2018-Jan-08 04:21N 54°20' W 130°17'0 0.0
2018-Jan-08 03:57N 54°20' W 130°17'0 0.0
2018-Jan-08 03:03N 54°20' W 130°17'0 0.0
2018-Jan-08 02:57N 54°20' W 130°17'0 0.0
2018-Jan-08 02:27N 54°20' W 130°17'0 0.0
2018-Jan-08 01:57N 54°20' W 130°17'1 2.7
2018-Jan-08 01:30N 54°21' W 130°16'5 9.4
2018-Jan-08 01:00N 54°26' W 130°19'1 2.5
2018-Jan-08 00:31N 54°25' W 130°17'4 8.8
2018-Jan-08 00:01N 54°20' W 130°17'0 0.7
2018-Jan-07 23:27N 54°20' W 130°17'0 0.0
2018-Jan-07 22:57N 54°20' W 130°17'0 0.0
2018-Jan-07 22:27N 54°20' W 130°17'0 0.0
2018-Jan-07 21:57N 54°20' W 130°17'0 0.0
2018-Jan-07 21:27N 54°20' W 130°17'0 0.0
2018-Jan-07 20:57N 54°20' W 130°17'1 3.3
2018-Jan-07 20:30N 54°21' W 130°16'5 9.1
2018-Jan-07 19:59N 54°26' W 130°19'2 3.6
2018-Jan-07 19:31N 54°25' W 130°17'4 8.7
2018-Jan-07 19:00N 54°20' W 130°17'0 0.5
2018-Jan-07 18:28N 54°20' W 130°17'0 0.0
2018-Jan-07 17:58N 54°20' W 130°17'0 0.0
2018-Jan-07 17:28N 54°20' W 130°17'0 0.0
2018-Jan-07 16:58N 54°20' W 130°17'0 0.0
2018-Jan-07 16:28N 54°20' W 130°17'0 0.0
2018-Jan-07 15:58N 54°20' W 130°17'0 0.0
2018-Jan-07 15:28N 54°20' W 130°17'0 0.0
2018-Jan-07 14:58N 54°20' W 130°17'0 0.0
2018-Jan-07 14:28N 54°20' W 130°17'0 0.0
2018-Jan-07 13:58N 54°20' W 130°17'0 0.0
2018-Jan-07 13:28N 54°20' W 130°17'0 0.0
2018-Jan-07 12:55N 54°20' W 130°17'0 0.0
2018-Jan-07 12:22N 54°20' W 130°17'0 0.0
2018-Jan-07 11:58N 54°20' W 130°17'0 0.0
2018-Jan-07 11:28N 54°20' W 130°17'0 0.0
2018-Jan-07 10:58N 54°20' W 130°17'0 0.0
2018-Jan-07 10:25N 54°20' W 130°17'0 0.0
2018-Jan-07 09:58N 54°20' W 130°17'0 0.0
2018-Jan-07 09:25N 54°20' W 130°17'0 0.0
2018-Jan-07 08:55N 54°20' W 130°17'0 0.0
2018-Jan-07 08:28N 54°20' W 130°17'0 0.0
2018-Jan-07 07:58N 54°20' W 130°17'0 0.0
2018-Jan-07 07:25N 54°20' W 130°17'0 0.0
2018-Jan-07 06:58N 54°20' W 130°17'0 0.0
2018-Jan-07 06:25N 54°20' W 130°17'0 0.0
2018-Jan-07 05:55N 54°20' W 130°17'0 0.0
2018-Jan-07 05:25N 54°20' W 130°17'0 0.0
2018-Jan-07 04:58N 54°20' W 130°17'0 0.0
2018-Jan-07 04:28N 54°20' W 130°17'0 0.0
2018-Jan-07 03:58N 54°20' W 130°17'0 0.0
2018-Jan-07 03:28N 54°20' W 130°17'0 0.0
2018-Jan-07 02:58N 54°20' W 130°17'1 2.1
2018-Jan-07 02:30N 54°21' W 130°17'4 4.6
2018-Jan-07 01:34N 54°25' W 130°18'110.2
2018-Jan-07 01:29N 54°25' W 130°17'5 4.8
2018-Jan-07 00:30N 54°20' W 130°17'0 0.0
2018-Jan-07 00:00N 54°20' W 130°17'0 0.0
2018-Jan-06 23:30N 54°20' W 130°17'0 0.0
2018-Jan-06 23:00N 54°20' W 130°17'0 0.0
2018-Jan-06 22:30N 54°20' W 130°17'0 0.0
2018-Jan-06 22:00N 54°20' W 130°17'0 0.0
2018-Jan-06 21:30N 54°20' W 130°17'0 0.0
2018-Jan-06 21:00N 54°20' W 130°17'0 0.0
2018-Jan-06 20:30N 54°20' W 130°17'0 0.0
2018-Jan-06 20:00N 54°20' W 130°17'0 0.0
2018-Jan-06 19:30N 54°20' W 130°17'0 0.0
2018-Jan-06 18:54N 54°20' W 130°17'0 0.0
2018-Jan-06 18:30N 54°20' W 130°17'0 0.0
2018-Jan-06 18:00N 54°20' W 130°17'1 2.1
2018-Jan-06 17:30N 54°21' W 130°17'4 3.5
2018-Jan-06 16:29N 54°25' W 130°17'4 8.5
2018-Jan-06 16:01N 54°21' W 130°17'1 1.3
2018-Jan-06 15:26N 54°20' W 130°17'0 0.0
2018-Jan-06 14:59N 54°20' W 130°17'0 0.0
2018-Jan-06 14:29N 54°20' W 130°17'0 0.0
2018-Jan-06 13:59N 54°20' W 130°17'0 0.0
2018-Jan-06 13:26N 54°20' W 130°17'0 0.0
2018-Jan-06 12:56N 54°20' W 130°17'0 0.0
2018-Jan-06 12:29N 54°20' W 130°17'0 0.0
2018-Jan-06 11:59N 54°20' W 130°17'0 0.0
2018-Jan-06 11:29N 54°20' W 130°17'0 0.0
2018-Jan-06 10:59N 54°20' W 130°17'0 0.0
2018-Jan-06 10:26N 54°20' W 130°17'0 0.0
2018-Jan-06 09:59N 54°20' W 130°17'0 0.0
2018-Jan-06 09:29N 54°20' W 130°17'0 0.0
2018-Jan-06 08:56N 54°20' W 130°17'0 0.0
2018-Jan-06 08:26N 54°20' W 130°17'0 0.0
2018-Jan-06 07:59N 54°20' W 130°17'0 0.0
2018-Jan-06 07:26N 54°20' W 130°17'0 0.0
2018-Jan-06 06:56N 54°20' W 130°17'0 0.0
2018-Jan-06 06:29N 54°20' W 130°17'0 0.0
2018-Jan-06 05:59N 54°20' W 130°17'0 0.0
2018-Jan-06 05:29N 54°20' W 130°17'0 0.0
2018-Jan-06 04:56N 54°20' W 130°17'0 0.0
2018-Jan-06 04:29N 54°20' W 130°17'0 0.0
2018-Jan-06 03:59N 54°20' W 130°17'0 0.0
2018-Jan-06 03:29N 54°20' W 130°17'0 0.0
2018-Jan-06 02:59N 54°20' W 130°17'2 4.7
2018-Jan-06 02:30N 54°22' W 130°16'4 4.3
2018-Jan-06 01:37N 54°26' W 130°18'110.4
2018-Jan-06 01:30N 54°25' W 130°17'4 8.8
2018-Jan-06 01:01N 54°20' W 130°17'0 0.7
2018-Jan-06 00:29N 54°20' W 130°17'0 0.0
2018-Jan-05 23:59N 54°20' W 130°17'0 0.0
2018-Jan-05 23:29N 54°20' W 130°17'0 0.0
2018-Jan-05 22:56N 54°20' W 130°17'0 0.0
2018-Jan-05 22:29N 54°20' W 130°17'0 0.0
2018-Jan-05 21:59N 54°20' W 130°17'0 0.0
2018-Jan-05 21:23N 54°20' W 130°17'0 0.0
2018-Jan-05 20:59N 54°20' W 130°17'0 0.0
2018-Jan-05 20:29N 54°20' W 130°17'0 0.0
2018-Jan-05 19:59N 54°20' W 130°17'0 0.0
2018-Jan-05 19:29N 54°20' W 130°17'0 0.0
2018-Jan-05 18:59N 54°20' W 130°17'0 0.0
2018-Jan-05 18:29N 54°20' W 130°17'0 0.0
2018-Jan-05 18:00N 54°20' W 130°17'2 3.3
2018-Jan-05 17:30N 54°22' W 130°16'3 3.1
2018-Jan-05 16:31N 54°25' W 130°17'010.1
2018-Jan-05 16:29N 54°24' W 130°17'4 8.9
2018-Jan-05 16:00N 54°20' W 130°17'0 0.3
2018-Jan-05 15:21N 54°20' W 130°17'0 0.0
2018-Jan-05 14:57N 54°20' W 130°17'0 0.0
2018-Jan-05 14:30N 54°20' W 130°17'0 0.0
2018-Jan-05 13:57N 54°20' W 130°17'0 0.0
2018-Jan-05 13:30N 54°20' W 130°17'0 0.0
2018-Jan-05 12:57N 54°20' W 130°17'0 0.0
2018-Jan-05 12:30N 54°20' W 130°17'0 0.0
2018-Jan-05 11:57N 54°20' W 130°17'0 0.0
2018-Jan-05 11:27N 54°20' W 130°17'0 0.0
2018-Jan-05 10:57N 54°20' W 130°17'0 0.0
2018-Jan-05 10:27N 54°20' W 130°17'0 0.0
2018-Jan-05 09:57N 54°20' W 130°17'0 0.0
2018-Jan-05 09:30N 54°20' W 130°17'0 0.0
2018-Jan-05 09:00N 54°20' W 130°17'0 0.0
2018-Jan-05 08:27N 54°20' W 130°17'0 0.0
2018-Jan-05 08:00N 54°20' W 130°17'0 0.0
2018-Jan-05 07:27N 54°20' W 130°17'0 0.0
2018-Jan-05 07:00N 54°20' W 130°17'0 0.0
2018-Jan-05 06:30N 54°20' W 130°17'0 0.0
2018-Jan-05 06:00N 54°20' W 130°17'0 0.0
2018-Jan-05 05:30N 54°20' W 130°17'0 0.0
2018-Jan-05 05:00N 54°20' W 130°17'0 0.0
2018-Jan-05 04:27N 54°20' W 130°17'0 0.0
2018-Jan-05 04:00N 54°20' W 130°17'0 0.0
2018-Jan-05 03:30N 54°20' W 130°17'0 0.0
2018-Jan-05 02:57N 54°20' W 130°17'1 2.7
2018-Jan-05 02:30N 54°21' W 130°16'5 8.8
2018-Jan-05 01:58N 54°26' W 130°19'1 2.6
2018-Jan-05 01:30N 54°25' W 130°17'4 8.5
2018-Jan-05 01:00N 54°21' W 130°17'1 1.0
2018-Jan-05 00:30N 54°20' W 130°17'0 0.0
2018-Jan-05 00:00N 54°20' W 130°17'0 0.0
2018-Jan-04 23:30N 54°20' W 130°17'0 0.0
2018-Jan-04 23:00N 54°20' W 130°17'0 0.0
2018-Jan-04 22:30N 54°20' W 130°17'0 0.0
2018-Jan-04 21:57N 54°20' W 130°17'0 0.0
2018-Jan-04 21:30N 54°20' W 130°17'0 0.0
2018-Jan-04 20:54N 54°20' W 130°17'0 0.0
2018-Jan-04 20:27N 54°20' W 130°17'0 0.0
2018-Jan-04 20:00N 54°20' W 130°17'0 0.0
2018-Jan-04 19:30N 54°20' W 130°17'0 0.0
2018-Jan-04 18:54N 54°20' W 130°17'0 0.0
2018-Jan-04 18:30N 54°20' W 130°17'0 0.0
2018-Jan-04 17:57N 54°20' W 130°17'2 3.8
2018-Jan-04 17:30N 54°22' W 130°16'4 8.7
2018-Jan-04 17:00N 54°26' W 130°19'2 3.4
2018-Jan-04 16:30N 54°25' W 130°17'4 8.6
2018-Jan-04 16:00N 54°20' W 130°17'0 0.4
2018-Jan-04 15:25N 54°20' W 130°17'0 0.0
2018-Jan-04 14:58N 54°20' W 130°17'0 0.0
2018-Jan-04 14:19N 54°20' W 130°17'0 0.0
2018-Jan-04 13:58N 54°20' W 130°17'0 0.0
2018-Jan-04 13:28N 54°20' W 130°17'0 0.0
2018-Jan-04 12:55N 54°20' W 130°17'0 0.0
2018-Jan-04 12:28N 54°20' W 130°17'0 0.0
2018-Jan-04 11:58N 54°20' W 130°17'0 0.0
2018-Jan-04 11:25N 54°20' W 130°17'0 0.0
2018-Jan-04 10:58N 54°20' W 130°17'0 0.0
2018-Jan-04 10:28N 54°20' W 130°17'0 0.0
2018-Jan-04 09:58N 54°20' W 130°17'0 0.0
2018-Jan-04 09:28N 54°20' W 130°17'0 0.0
2018-Jan-04 08:58N 54°20' W 130°17'0 0.0
2018-Jan-04 08:28N 54°20' W 130°17'0 0.0
2018-Jan-04 07:58N 54°20' W 130°17'0 0.0
2018-Jan-04 07:28N 54°20' W 130°17'0 0.0
2018-Jan-04 06:58N 54°20' W 130°17'0 0.0
2018-Jan-04 06:28N 54°20' W 130°17'0 0.0
2018-Jan-04 05:58N 54°20' W 130°17'0 0.0
2018-Jan-04 05:28N 54°20' W 130°17'0 0.0
2018-Jan-04 04:58N 54°20' W 130°17'0 0.0
2018-Jan-04 04:28N 54°20' W 130°17'0 0.0
2018-Jan-04 03:55N 54°20' W 130°17'0 0.0
2018-Jan-04 03:28N 54°20' W 130°17'0 0.0
2018-Jan-04 02:58N 54°20' W 130°17'2 4.0
2018-Jan-04 02:30N 54°22' W 130°16'4 8.9
2018-Jan-04 02:00N 54°26' W 130°19'2 3.4
2018-Jan-04 01:30N 54°25' W 130°17'4 8.4
2018-Jan-04 01:01N 54°20' W 130°17'0 0.9
2018-Jan-04 00:30N 54°20' W 130°17'0 0.0
2018-Jan-04 00:00N 54°20' W 130°17'0 0.0
2018-Jan-03 23:30N 54°20' W 130°17'0 0.0
2018-Jan-03 23:00N 54°20' W 130°17'0 0.0
2018-Jan-03 22:30N 54°20' W 130°17'0 0.0
2018-Jan-03 22:00N 54°20' W 130°17'0 0.0
2018-Jan-03 21:30N 54°20' W 130°17'0 0.0
2018-Jan-03 21:00N 54°20' W 130°17'0 0.0
2018-Jan-03 20:30N 54°20' W 130°17'0 0.0
2018-Jan-03 20:00N 54°20' W 130°17'0 0.0
2018-Jan-03 19:30N 54°20' W 130°17'0 0.0
2018-Jan-03 19:00N 54°20' W 130°17'0 0.0
2018-Jan-03 18:30N 54°20' W 130°17'0 0.0
2018-Jan-03 18:00N 54°20' W 130°17'2 3.3
2018-Jan-03 17:30N 54°22' W 130°16'4 8.6
2018-Jan-03 17:01N 54°26' W 130°18'1 2.7
2018-Jan-03 16:30N 54°25' W 130°17'4 8.9
2018-Jan-03 16:00N 54°20' W 130°17'0 0.4
2018-Jan-03 15:29N 54°20' W 130°17'0 0.0
2018-Jan-03 14:59N 54°20' W 130°17'0 0.0
2018-Jan-03 14:29N 54°20' W 130°17'0 0.0
2018-Jan-03 13:59N 54°20' W 130°17'0 0.0
2018-Jan-03 13:26N 54°20' W 130°17'0 0.0
2018-Jan-03 12:59N 54°20' W 130°17'0 0.0
2018-Jan-03 12:29N 54°20' W 130°17'0 0.0
2018-Jan-03 11:53N 54°20' W 130°17'0 0.0
2018-Jan-03 11:29N 54°20' W 130°17'0 0.0
2018-Jan-03 10:59N 54°20' W 130°17'0 0.0
2018-Jan-03 10:29N 54°20' W 130°17'0 0.0
2018-Jan-03 09:59N 54°20' W 130°17'0 0.0
2018-Jan-03 09:29N 54°20' W 130°17'0 0.0
2018-Jan-03 08:59N 54°20' W 130°17'0 0.0
2018-Jan-03 08:29N 54°20' W 130°17'0 0.0
2018-Jan-03 07:59N 54°20' W 130°17'0 0.0
2018-Jan-03 07:29N 54°20' W 130°17'0 0.0
2018-Jan-03 06:59N 54°20' W 130°17'0 0.0
2018-Jan-03 06:29N 54°20' W 130°17'0 0.0
2018-Jan-03 05:59N 54°20' W 130°17'0 0.0
2018-Jan-03 05:29N 54°20' W 130°17'0 0.0
2018-Jan-03 04:59N 54°20' W 130°17'0 0.0
2018-Jan-03 04:29N 54°20' W 130°17'0 0.0
2018-Jan-03 03:59N 54°20' W 130°17'0 0.0
2018-Jan-03 03:29N 54°20' W 130°17'0 0.0
2018-Jan-03 02:57N 54°20' W 130°17'3 6.9
2018-Jan-03 02:30N 54°23' W 130°16'4 6.2
2018-Jan-03 01:54N 54°26' W 130°19'2 4.1
2018-Jan-03 01:30N 54°25' W 130°17'4 8.5
2018-Jan-03 01:00N 54°20' W 130°17'0 0.9
2018-Jan-03 00:29N 54°20' W 130°17'0 0.0
2018-Jan-02 23:58N 54°20' W 130°17'0 0.0
2018-Jan-02 23:28N 54°20' W 130°17'0 0.0
2018-Jan-02 22:58N 54°20' W 130°17'0 0.0
2018-Jan-02 22:28N 54°20' W 130°17'0 0.0
2018-Jan-02 21:58N 54°20' W 130°17'0 0.0
2018-Jan-02 21:25N 54°20' W 130°17'0 0.0
2018-Jan-02 20:53N 54°20' W 130°17'0 0.0
2018-Jan-02 20:28N 54°20' W 130°17'0 0.0
2018-Jan-02 19:58N 54°20' W 130°17'0 0.0
2018-Jan-02 19:28N 54°20' W 130°17'0 0.0
2018-Jan-02 18:52N 54°20' W 130°17'0 0.0
2018-Jan-02 18:28N 54°20' W 130°17'0 0.0
2018-Jan-02 17:58N 54°20' W 130°17'3 6.0
2018-Jan-02 17:30N 54°23' W 130°16'4 7.5
2018-Jan-02 17:00N 54°26' W 130°19'3 6.1
2018-Jan-02 16:30N 54°24' W 130°15'4 6.6
2018-Jan-02 15:55N 54°20' W 130°17'0 0.0
2018-Jan-02 15:28N 54°20' W 130°17'  

Dump ship's entire track history